createdAt,value
2018-11-05T00:01:14.978Z,31.40
2018-11-05T00:06:18.672Z,38.90
2018-11-05T00:11:22.321Z,37.17
2018-11-05T00:16:25.914Z,32.43
2018-11-05T00:21:29.731Z,33.30
2018-11-05T00:26:33.386Z,34.17
2018-11-05T00:31:38.024Z,33.80
2018-11-05T00:36:42.069Z,35.73
2018-11-05T00:41:46.089Z,33.83
2018-11-05T00:46:49.713Z,34.33
2018-11-05T00:51:54.444Z,38.67
2018-11-05T00:56:58.060Z,39.43
2018-11-05T01:02:02.309Z,41.80
2018-11-05T01:07:05.934Z,34.83
2018-11-05T01:12:09.772Z,35.20
2018-11-05T01:17:13.382Z,33.90
2018-11-05T01:22:17.002Z,34.77
2018-11-05T01:27:20.654Z,36.57
2018-11-05T01:32:24.880Z,37.07
2018-11-05T01:37:28.581Z,33.87
2018-11-05T01:42:32.180Z,35.90
2018-11-05T01:47:35.734Z,32.87
2018-11-05T01:52:39.323Z,37.07
2018-11-05T01:57:43.116Z,34.17
2018-11-05T02:02:47.314Z,39.10
2018-11-05T02:07:50.930Z,46.97
2018-11-05T02:12:54.516Z,36.23
2018-11-05T02:17:58.088Z,40.90
2018-11-05T02:23:01.641Z,35.93
2018-11-05T02:28:07.143Z,38.47
2018-11-05T02:33:12.421Z,34.83
2018-11-05T02:38:16.216Z,37.03
2018-11-05T02:43:19.839Z,35.70
2018-11-05T02:48:23.396Z,36.43
2018-11-05T02:53:26.953Z,36.60
2018-11-05T02:58:31.822Z,34.73
2018-11-05T03:03:36.448Z,33.37
2018-11-05T03:08:40.123Z,34.17
2018-11-05T03:13:43.719Z,33.10
2018-11-05T03:18:47.378Z,32.40
2018-11-05T03:23:51.586Z,42.37
2018-11-05T03:28:55.215Z,37.30
2018-11-05T03:33:59.493Z,33.33
2018-11-05T03:39:03.201Z,37.27
2018-11-05T03:44:07.212Z,38.50
2018-11-05T03:49:11.113Z,37.53
2018-11-05T03:54:15.367Z,35.93
2018-11-05T03:59:19.279Z,41.30
2018-11-05T04:04:22.908Z,37.97
2018-11-05T04:09:26.535Z,39.90
2018-11-05T04:14:30.107Z,37.10
2018-11-05T04:19:33.700Z,37.27
2018-11-05T04:24:39.009Z,37.77
2018-11-05T04:29:42.605Z,37.60
2018-11-05T04:34:46.164Z,40.93
2018-11-05T04:39:49.752Z,39.10
2018-11-05T04:44:53.375Z,36.00
2018-11-05T04:49:57.037Z,32.90
2018-11-05T04:55:00.784Z,37.07
2018-11-05T05:00:10.657Z,40.43
2018-11-05T05:05:15.593Z,38.17
2018-11-05T05:10:20.175Z,39.23
2018-11-05T05:15:23.782Z,35.30
2018-11-05T05:20:27.505Z,35.67
2018-11-05T05:25:31.149Z,34.87
2018-11-05T05:30:34.866Z,36.30
2018-11-05T05:35:38.457Z,36.20
2018-11-05T05:40:42.697Z,37.73
2018-11-05T05:45:46.350Z,36.30
2018-11-05T05:50:49.943Z,38.43
2018-11-05T05:55:53.611Z,37.30
2018-11-05T06:00:57.537Z,38.13
2018-11-05T06:06:01.982Z,41.87
2018-11-05T06:11:05.815Z,37.03
2018-11-05T06:16:09.647Z,35.23
2018-11-05T06:21:13.224Z,39.67
2018-11-05T06:26:16.869Z,44.77
2018-11-05T06:31:20.522Z,39.23
2018-11-05T06:36:24.491Z,38.87
2018-11-05T06:41:28.224Z,43.37
2018-11-05T06:46:31.804Z,39.47
2018-11-05T06:51:35.507Z,32.90
2018-11-05T06:56:39.447Z,38.10
2018-11-05T07:01:43.155Z,33.10
2018-11-05T07:06:46.767Z,31.87
2018-11-05T07:11:50.420Z,34.93
2018-11-05T07:16:54.284Z,31.40
2018-11-05T07:21:57.876Z,33.33
2018-11-05T07:27:01.617Z,32.70
2018-11-05T07:32:05.277Z,41.20
2018-11-05T07:37:09.756Z,33.33
2018-11-05T07:42:13.420Z,32.10
2018-11-05T07:47:17.065Z,36.33
2018-11-05T07:52:20.639Z,37.77
2018-11-05T07:57:24.456Z,39.80
2018-11-05T08:02:28.062Z,33.60
2018-11-05T08:07:31.642Z,35.63
2018-11-05T08:12:36.277Z,32.60
2018-11-05T08:17:41.016Z,34.43
2018-11-05T08:22:44.688Z,25.03
2018-11-05T08:27:53.637Z,31.60
2018-11-05T08:32:57.969Z,37.00
2018-11-05T08:38:01.623Z,37.47
2018-11-05T08:43:05.542Z,30.93
2018-11-05T08:48:10.300Z,27.60
2018-11-05T08:53:13.884Z,23.03
2018-11-05T08:58:17.808Z,20.60
2018-11-05T09:03:21.363Z,23.13
2018-11-05T09:08:25.223Z,23.03
2018-11-05T09:13:29.172Z,25.00
2018-11-05T09:18:32.754Z,21.67
2018-11-05T09:23:36.720Z,23.20
2018-11-05T09:28:46.786Z,27.80
2018-11-05T09:33:52.318Z,26.07
2018-11-05T09:38:55.896Z,23.07
2018-11-05T09:44:00.176Z,21.27
2018-11-05T09:49:04.041Z,20.43
2018-11-05T09:54:07.966Z,17.40
2018-11-05T09:59:11.586Z,16.67
2018-11-05T10:04:15.667Z,18.00
2018-11-05T10:09:19.353Z,16.47
2018-11-05T10:14:22.905Z,19.63
2018-11-05T10:19:26.613Z,15.70
2018-11-05T10:24:30.356Z,16.30
2018-11-05T10:29:33.962Z,18.17
2018-11-05T10:34:37.829Z,17.97
2018-11-05T10:39:41.477Z,17.33
2018-11-05T10:44:45.056Z,19.83
2018-11-05T10:49:48.668Z,22.60
2018-11-05T10:54:53.260Z,23.30
2018-11-05T10:59:57.052Z,20.30
2018-11-05T11:05:00.618Z,21.63
2018-11-05T11:10:04.697Z,19.10
2018-11-05T11:15:08.572Z,22.63
2018-11-05T11:20:13.481Z,18.47
2018-11-05T11:25:17.804Z,20.40
2018-11-05T11:30:22.117Z,20.43
2018-11-05T11:35:25.718Z,25.03
2018-11-05T11:40:30.143Z,23.63
2018-11-05T11:45:33.991Z,19.13
2018-11-05T11:50:37.592Z,20.70
2018-11-05T11:55:41.617Z,22.60
2018-11-05T12:00:45.190Z,23.53
2018-11-05T12:05:49.074Z,24.50
2018-11-05T12:10:52.658Z,21.37
2018-11-05T12:15:56.881Z,22.47
2018-11-05T12:21:00.511Z,17.17
2018-11-05T12:26:04.514Z,16.60
2018-11-05T12:31:08.195Z,17.67
2018-11-05T12:36:12.520Z,18.23
2018-11-05T12:41:16.134Z,20.20
2018-11-05T12:46:19.993Z,21.97
2018-11-05T12:51:23.583Z,25.17
2018-11-05T12:56:27.752Z,20.93
2018-11-05T13:01:33.309Z,26.10
2018-11-05T13:06:41.409Z,19.97
2018-11-05T13:11:45.036Z,19.27
2018-11-05T13:16:48.675Z,18.30
2018-11-05T13:21:52.660Z,21.50
2018-11-05T13:26:56.599Z,41.10
2018-11-05T13:32:00.296Z,53.80
2018-11-05T13:37:05.122Z,30.07
2018-11-05T13:42:09.138Z,24.87
2018-11-05T13:47:13.470Z,32.80
2018-11-05T13:52:16.700Z,31.83
2018-11-05T13:57:20.488Z,21.60
2018-11-05T14:02:24.057Z,21.73
2018-11-05T14:07:28.007Z,24.03
2018-11-05T14:12:31.624Z,36.13
2018-11-05T14:17:36.016Z,22.70
2018-11-05T14:22:39.596Z,28.73
2018-11-05T14:27:44.375Z,22.17
2018-11-05T14:32:48.943Z,20.07
2018-11-05T14:37:53.470Z,20.03
2018-11-05T14:42:58.070Z,18.47
2018-11-05T14:48:01.508Z,21.23
2018-11-05T14:53:05.073Z,20.73
2018-11-05T14:58:08.879Z,23.60
2018-11-05T15:03:17.377Z,24.00
2018-11-05T15:08:21.695Z,18.73
2018-11-05T15:13:28.599Z,20.93
2018-11-05T15:18:33.552Z,23.20
2018-11-05T15:23:43.818Z,20.53
2018-11-05T15:28:47.784Z,22.37
2018-11-05T15:33:57.809Z,22.87
2018-11-05T15:39:05.070Z,19.30
2018-11-05T15:44:09.201Z,21.40
2018-11-05T15:49:13.153Z,22.67
2018-11-05T15:54:17.476Z,22.27
2018-11-05T15:59:22.410Z,24.97
2018-11-05T16:04:26.229Z,24.93
2018-11-05T16:09:30.046Z,23.50
2018-11-05T16:14:34.275Z,26.60
2018-11-05T16:19:40.533Z,22.53
2018-11-05T16:24:44.197Z,22.17
2018-11-05T16:29:47.868Z,23.60
2018-11-05T16:34:51.788Z,39.40
2018-11-05T16:39:55.949Z,20.67
2018-11-05T16:44:59.536Z,27.33
2018-11-05T16:50:03.280Z,22.97
2018-11-05T16:55:08.486Z,24.30
2018-11-05T17:00:13.236Z,24.20
2018-11-05T17:05:17.227Z,22.33
2018-11-05T17:10:20.842Z,23.40
2018-11-05T17:15:24.429Z,26.33
2018-11-05T17:20:29.111Z,24.50
2018-11-05T17:25:32.946Z,20.77
2018-11-05T17:30:36.778Z,37.37
2018-11-05T17:35:41.474Z,24.93
2018-11-05T17:40:45.624Z,26.10
2018-11-05T17:45:49.205Z,26.77
2018-11-05T17:50:52.842Z,26.60
2018-11-05T17:55:56.844Z,27.27
2018-11-05T18:01:00.439Z,25.23
2018-11-05T18:06:04.615Z,31.00
2018-11-05T18:11:08.455Z,29.73
2018-11-05T18:16:12.397Z,30.63
2018-11-05T18:21:16.309Z,31.37
2018-11-05T18:26:20.114Z,32.30
2018-11-05T18:31:24.031Z,29.90
2018-11-05T18:36:29.161Z,25.30
2018-11-05T18:41:32.756Z,27.17
2018-11-05T18:46:36.327Z,34.87
2018-11-05T18:51:40.036Z,28.50
2018-11-05T18:56:44.282Z,24.10
2018-11-05T19:01:47.887Z,23.77
2018-11-05T19:06:51.502Z,32.97
2018-11-05T19:11:55.111Z,28.63
2018-11-05T19:16:58.837Z,34.50
2018-11-05T19:22:02.604Z,30.83
2018-11-05T19:27:07.317Z,29.07
2018-11-05T19:32:11.607Z,27.30
2018-11-05T19:37:15.186Z,30.97
2018-11-05T19:42:19.356Z,30.60
2018-11-05T19:47:23.718Z,29.80
2018-11-05T19:52:29.563Z,27.53
2018-11-05T19:57:33.401Z,26.30
2018-11-05T20:02:37.447Z,29.20
2018-11-05T20:07:41.308Z,28.20
2018-11-05T20:12:45.806Z,40.50
2018-11-05T20:17:50.668Z,37.93
2018-11-05T20:22:54.302Z,38.03
2018-11-05T20:27:58.961Z,30.67
2018-11-05T20:33:03.350Z,28.30
2018-11-05T20:38:07.016Z,29.27
2018-11-05T20:43:10.783Z,27.80
2018-11-05T20:48:14.919Z,31.60
2018-11-05T20:53:19.165Z,26.37
2018-11-05T20:58:22.718Z,27.80
2018-11-05T21:03:26.560Z,30.30
2018-11-05T21:08:30.436Z,28.50
2018-11-05T21:13:34.134Z,32.83
2018-11-05T21:18:38.249Z,28.50
2018-11-05T21:23:42.799Z,29.20
2018-11-05T21:28:46.484Z,35.67
2018-11-05T21:33:52.192Z,25.43
2018-11-05T21:38:56.045Z,25.53
2018-11-05T21:43:59.774Z,26.63
2018-11-05T21:49:03.382Z,25.23
2018-11-05T21:54:07.452Z,21.27
2018-11-05T21:59:11.428Z,29.13
2018-11-05T22:04:15.036Z,30.93
2018-11-05T22:09:18.633Z,30.40
2018-11-05T22:14:22.178Z,33.40
2018-11-05T22:19:25.828Z,26.17
2018-11-05T22:24:29.400Z,37.10
2018-11-05T22:29:33.174Z,39.97
2018-11-05T22:34:37.889Z,40.70
2018-11-05T22:39:41.504Z,33.77
2018-11-05T22:44:45.103Z,40.03
2018-11-05T22:49:48.975Z,41.60
2018-11-05T22:54:52.553Z,40.47
2018-11-05T22:59:56.719Z,35.47
2018-11-05T23:05:01.219Z,33.20
2018-11-05T23:10:05.748Z,26.13
2018-11-05T23:15:10.058Z,25.00
2018-11-05T23:20:13.891Z,23.37
2018-11-05T23:25:17.885Z,30.73
2018-11-05T23:30:21.455Z,24.33
2018-11-05T23:35:25.060Z,20.60
2018-11-05T23:40:29.017Z,22.70
2018-11-05T23:45:33.009Z,21.73
2018-11-05T23:50:36.564Z,19.70
2018-11-05T23:55:40.139Z,19.30
